Codo, Brazil
Current Conditions -  °F | °C
As of 12:00 AM on Wednesday 26 Nov 2014 (Local Time) from SBTE Reporting Station
Broken Clouds Broken Clouds  
Wind Chill: 84°   Ceiling: 9000
Heat Index: 90°   Visibility: 6mi
Dew Point: 72°   Wind: 12mph
Humidity: 66%   Direction: 360°N
Pressure: 29.77"   Gusts: NA
Location:  4.46°S, 43.89°W
Report Text: SBTE 260300Z 36010KT 9999 FEW040 BKN090 29/22 Q1008
Loading
Personal Weather Stations






























Interactive Weather Map New forecast layout! Learn more

10-Day Weather Forecast

Advertisements
Track Severe Weather on mobile